createdAt,value
2019-02-28T00:00:13.123Z,6.30
2019-02-28T00:03:06.736Z,6.30
2019-02-28T00:05:50.196Z,6.40
2019-02-28T00:08:31.985Z,6.60
2019-02-28T00:11:23.882Z,6.60
2019-02-28T00:14:15.004Z,6.50
2019-02-28T00:17:17.891Z,6.60
2019-02-28T00:19:57.988Z,6.60
2019-02-28T00:22:35.407Z,6.70
2019-02-28T00:25:38.619Z,6.60
2019-02-28T00:28:20.109Z,6.60
2019-02-28T00:31:02.088Z,6.60
2019-02-28T00:33:43.083Z,6.50
2019-02-28T00:36:40.581Z,6.50
2019-02-28T00:39:14.666Z,6.40
2019-02-28T00:41:55.423Z,6.40
2019-02-28T00:44:31.805Z,6.40
2019-02-28T00:47:17.369Z,6.40
2019-02-28T00:50:01.006Z,6.40
2019-02-28T00:52:58.895Z,6.30
2019-02-28T00:55:40.465Z,6.20
2019-02-28T00:58:16.427Z,6.10
2019-02-28T01:01:01.973Z,6.00
2019-02-28T01:03:46.606Z,6.00
2019-02-28T01:06:26.710Z,5.90
2019-02-28T01:09:17.016Z,5.90
2019-02-28T01:11:52.871Z,6.00
2019-02-28T01:14:32.452Z,6.20
2019-02-28T01:17:19.467Z,6.20
2019-02-28T01:20:08.042Z,6.00
2019-02-28T01:23:04.178Z,6.00
2019-02-28T01:25:58.370Z,6.00
2019-02-28T01:28:52.054Z,6.10
2019-02-28T01:31:35.761Z,6.10
2019-02-28T01:34:25.749Z,6.10
2019-02-28T01:37:09.476Z,6.10
2019-02-28T01:39:55.788Z,6.10
2019-02-28T01:42:37.264Z,6.00
2019-02-28T01:45:18.891Z,5.80
2019-02-28T01:48:14.513Z,5.70
2019-02-28T01:51:01.813Z,5.60
2019-02-28T01:54:08.680Z,5.60
2019-02-28T01:56:47.959Z,5.50
2019-02-28T01:59:39.747Z,5.50
2019-02-28T02:02:21.896Z,5.40
2019-02-28T02:05:01.386Z,5.40
2019-02-28T02:07:59.543Z,5.50
2019-02-28T02:10:40.214Z,5.50
2019-02-28T02:13:28.906Z,5.70
2019-02-28T02:16:27.001Z,5.70
2019-02-28T02:19:07.817Z,5.70
2019-02-28T02:21:39.981Z,5.80
2019-02-28T02:24:20.171Z,5.90
2019-02-28T02:27:16.161Z,5.90
2019-02-28T02:29:54.534Z,5.80
2019-02-28T02:32:40.778Z,5.80
2019-02-28T02:35:32.761Z,5.80
2019-02-28T02:38:19.825Z,5.70
2019-02-28T02:41:15.748Z,5.60
2019-02-28T02:43:49.263Z,5.70
2019-02-28T02:46:30.484Z,5.60
2019-02-28T02:49:29.595Z,5.50
2019-02-28T02:51:53.967Z,5.50
2019-02-28T02:54:32.435Z,5.40
2019-02-28T02:57:14.050Z,5.30
2019-02-28T02:59:50.085Z,5.40
2019-02-28T03:02:57.538Z,5.30
2019-02-28T03:05:36.693Z,5.20
2019-02-28T03:08:18.117Z,5.30
2019-02-28T03:16:02.977Z,5.50
2019-02-28T03:18:30.683Z,5.40
2019-02-28T03:20:57.941Z,5.50
2019-02-28T03:23:25.211Z,5.50
2019-02-28T03:25:52.504Z,5.50
2019-02-28T03:28:20.027Z,5.50
2019-02-28T03:30:47.297Z,5.50
2019-02-28T03:33:23.385Z,5.60
2019-02-28T03:35:44.359Z,5.60
2019-02-28T03:38:12.765Z,5.70
2019-02-28T03:40:41.280Z,5.70
2019-02-28T03:43:08.748Z,5.80
2019-02-28T03:45:36.459Z,5.80
2019-02-28T03:48:04.118Z,5.80
2019-02-28T03:50:31.756Z,5.90
2019-02-28T03:52:59.849Z,5.80
2019-02-28T03:55:27.413Z,5.90
2019-02-28T03:57:54.657Z,5.90
2019-02-28T04:00:22.066Z,5.80
2019-02-28T04:02:56.968Z,5.70
2019-02-28T04:05:26.414Z,5.80
2019-02-28T04:07:52.674Z,5.80
2019-02-28T04:10:21.737Z,5.80
2019-02-28T04:12:47.189Z,5.80
2019-02-28T04:15:15.214Z,5.80
2019-02-28T04:17:43.025Z,5.80
2019-02-28T04:20:10.308Z,5.70
2019-02-28T04:22:37.662Z,5.80
2019-02-28T04:25:04.944Z,5.70
2019-02-28T04:27:32.468Z,5.60
2019-02-28T04:30:06.199Z,5.50
2019-02-28T04:32:29.119Z,5.40
2019-02-28T04:34:56.973Z,5.30
2019-02-28T04:37:24.831Z,5.20
2019-02-28T04:39:53.310Z,5.00
2019-02-28T04:42:22.061Z,5.10
2019-02-28T04:44:51.928Z,5.10
2019-02-28T04:47:18.848Z,5.10
2019-02-28T04:49:46.557Z,5.30
2019-02-28T04:52:14.372Z,5.40
2019-02-28T04:54:41.613Z,5.30
2019-02-28T04:57:08.871Z,5.30
2019-02-28T04:59:36.264Z,5.20
2019-02-28T05:02:03.797Z,5.10
2019-02-28T05:04:33.227Z,5.20
2019-02-28T05:07:00.476Z,5.10
2019-02-28T05:09:28.038Z,5.00
2019-02-28T05:11:55.695Z,5.10
2019-02-28T05:14:23.798Z,5.20
2019-02-28T05:16:52.140Z,5.20
2019-02-28T05:19:19.475Z,5.40
2019-02-28T05:21:47.044Z,5.40
2019-02-28T05:24:14.633Z,5.30
2019-02-28T05:26:41.996Z,5.40
2019-02-28T05:29:11.941Z,5.50
2019-02-28T05:31:38.441Z,5.50
2019-02-28T05:34:05.985Z,5.30
2019-02-28T05:36:34.629Z,5.20
2019-02-28T05:39:04.705Z,5.10
2019-02-28T05:41:32.004Z,5.10
2019-02-28T05:43:59.489Z,5.10
2019-02-28T05:46:27.194Z,5.00
2019-02-28T05:48:54.710Z,5.10
2019-02-28T05:51:24.926Z,5.20
2019-02-28T05:53:52.005Z,5.20
2019-02-28T05:56:19.355Z,5.10
2019-02-28T05:58:49.370Z,5.00
2019-02-28T06:01:16.084Z,5.00
2019-02-28T06:03:44.299Z,4.90
2019-02-28T06:06:11.930Z,4.90
2019-02-28T06:08:41.435Z,4.80
2019-02-28T06:11:08.733Z,4.80
2019-02-28T06:13:37.090Z,4.80
2019-02-28T06:16:04.554Z,4.80
2019-02-28T06:18:33.529Z,4.80
2019-02-28T06:21:00.984Z,4.80
2019-02-28T06:23:28.241Z,4.80
2019-02-28T06:25:59.361Z,4.80
2019-02-28T06:28:27.652Z,4.90
2019-02-28T06:30:54.396Z,4.80
2019-02-28T06:33:21.705Z,4.90
2019-02-28T06:35:49.602Z,4.90
2019-02-28T06:38:19.213Z,4.90
2019-02-28T06:40:47.166Z,4.90
2019-02-28T06:43:18.813Z,5.00
2019-02-28T06:45:46.791Z,5.10
2019-02-28T06:48:14.163Z,5.40
2019-02-28T06:50:41.327Z,5.80
2019-02-28T06:53:09.206Z,6.30
2019-02-28T06:55:47.104Z,6.70
2019-02-28T06:58:15.793Z,7.10
2019-02-28T07:00:44.153Z,7.50
2019-02-28T07:03:12.101Z,7.70
2019-02-28T07:05:39.575Z,7.50
2019-02-28T07:08:07.336Z,7.40
2019-02-28T07:10:34.585Z,7.30
2019-02-28T07:13:04.673Z,7.20
2019-02-28T07:15:31.129Z,7.10
2019-02-28T07:17:58.708Z,7.00
2019-02-28T07:20:25.861Z,7.00
2019-02-28T07:22:55.590Z,7.10
2019-02-28T07:25:22.735Z,7.00
2019-02-28T07:27:49.994Z,7.00
2019-02-28T07:30:18.448Z,7.00
2019-02-28T07:32:46.491Z,7.00
2019-02-28T07:35:14.090Z,7.10
2019-02-28T07:37:41.583Z,7.20
2019-02-28T07:40:15.740Z,7.50
2019-02-28T07:42:38.998Z,7.80
2019-02-28T07:45:06.951Z,8.10
2019-02-28T07:47:34.220Z,8.40
2019-02-28T07:50:01.461Z,8.60
2019-02-28T07:52:32.384Z,8.90
2019-02-28T07:54:57.971Z,9.10
2019-02-28T07:57:25.397Z,9.20
2019-02-28T07:59:52.666Z,9.50
2019-02-28T08:02:20.417Z,9.70
2019-02-28T08:04:50.666Z,10.00
2019-02-28T08:07:17.108Z,10.10
2019-02-28T08:09:44.437Z,10.20
2019-02-28T08:12:12.264Z,10.40
2019-02-28T08:14:40.001Z,10.60
2019-02-28T08:17:09.058Z,10.90
2019-02-28T08:19:36.478Z,11.00
2019-02-28T08:22:04.033Z,10.90
2019-02-28T08:24:31.438Z,11.20
2019-02-28T08:26:59.238Z,11.20
2019-02-28T08:29:27.668Z,11.40
2019-02-28T08:31:57.506Z,11.60
2019-02-28T08:34:25.593Z,11.70
2019-02-28T08:36:53.104Z,11.80
2019-02-28T08:39:21.306Z,11.90
2019-02-28T08:41:49.640Z,11.90
2019-02-28T08:44:22.827Z,11.90
2019-02-28T08:46:47.300Z,12.00
2019-02-28T08:49:15.435Z,12.10
2019-02-28T08:51:43.322Z,12.20
2019-02-28T08:54:11.205Z,12.40
2019-02-28T08:56:38.540Z,12.30
2019-02-28T08:59:15.394Z,12.40
2019-02-28T09:01:44.256Z,12.60
2019-02-28T09:04:12.127Z,12.70
2019-02-28T09:06:41.069Z,12.80
2019-02-28T09:09:14.589Z,12.90
2019-02-28T09:11:41.177Z,12.80
2019-02-28T09:14:10.401Z,12.80
2019-02-28T09:16:39.725Z,12.80
2019-02-28T09:19:11.051Z,12.80
2019-02-28T09:21:38.846Z,12.70
2019-02-28T09:24:09.434Z,12.80
2019-02-28T09:26:37.418Z,12.80
2019-02-28T09:29:05.569Z,12.90
2019-02-28T09:31:38.491Z,12.80
2019-02-28T09:34:04.833Z,12.90
2019-02-28T09:36:32.974Z,12.90
2019-02-28T09:39:00.700Z,12.70
2019-02-28T09:41:31.605Z,12.80
2019-02-28T09:44:00.331Z,12.80
2019-02-28T09:46:28.329Z,12.60
2019-02-28T09:48:56.313Z,12.60
2019-02-28T09:51:31.522Z,12.80
2019-02-28T09:53:56.374Z,12.90
2019-02-28T09:56:25.202Z,13.00
2019-02-28T09:58:52.615Z,13.20
2019-02-28T10:01:21.258Z,13.40
2019-02-28T10:03:52.197Z,13.50
2019-02-28T10:06:21.006Z,13.70
2019-02-28T10:08:51.541Z,13.60
2019-02-28T10:11:21.687Z,13.80
2019-02-28T10:13:53.158Z,14.00
2019-02-28T10:16:26.322Z,14.10
2019-02-28T10:18:54.056Z,14.30
2019-02-28T10:21:22.270Z,14.50
2019-02-28T10:23:50.202Z,14.50
2019-02-28T10:26:17.948Z,14.40
2019-02-28T10:28:46.466Z,14.10
2019-02-28T10:31:14.299Z,13.90
2019-02-28T10:33:42.640Z,14.00
2019-02-28T10:36:12.812Z,14.00
2019-02-28T10:38:41.630Z,14.30
2019-02-28T10:41:09.862Z,14.50
2019-02-28T10:43:40.077Z,14.50
2019-02-28T10:46:08.190Z,14.50
2019-02-28T10:48:41.846Z,14.50
2019-02-28T10:51:12.903Z,14.80
2019-02-28T10:53:36.326Z,14.90
2019-02-28T10:56:04.795Z,14.80
2019-02-28T10:58:36.225Z,14.90
2019-02-28T11:01:08.958Z,14.90
2019-02-28T11:03:39.688Z,15.10
2019-02-28T11:06:09.871Z,15.20
2019-02-28T11:08:38.126Z,15.20
2019-02-28T11:11:07.344Z,15.20
2019-02-28T11:13:35.211Z,15.10
2019-02-28T11:16:04.207Z,15.30
2019-02-28T11:18:32.806Z,15.30
2019-02-28T11:21:00.738Z,15.40
2019-02-28T11:23:30.363Z,15.50
2019-02-28T11:25:59.463Z,15.50
2019-02-28T11:28:28.301Z,15.50
2019-02-28T11:30:57.057Z,15.30
2019-02-28T11:33:25.810Z,15.50
2019-02-28T11:35:57.873Z,15.60
2019-02-28T11:38:22.931Z,16.00
2019-02-28T11:40:57.379Z,16.20
2019-02-28T11:43:21.761Z,16.50
2019-02-28T11:45:49.389Z,16.40
2019-02-28T11:48:20.197Z,16.20
2019-02-28T11:50:48.280Z,16.00
2019-02-28T11:53:16.591Z,15.70
2019-02-28T11:55:44.341Z,15.80
2019-02-28T11:58:17.694Z,15.90
2019-02-28T12:00:44.715Z,15.40
2019-02-28T12:03:12.652Z,15.50
2019-02-28T12:05:41.508Z,15.70
2019-02-28T12:08:10.556Z,15.90
2019-02-28T12:10:38.794Z,16.10
2019-02-28T12:13:07.837Z,16.10
2019-02-28T12:15:38.182Z,16.10
2019-02-28T12:18:08.237Z,16.30
2019-02-28T12:20:35.877Z,16.30
2019-02-28T12:23:03.897Z,16.30
2019-02-28T12:25:32.125Z,16.30
2019-02-28T12:28:02.837Z,16.30
2019-02-28T12:30:30.316Z,16.30
2019-02-28T12:32:59.831Z,16.30
2019-02-28T12:35:27.886Z,16.40
2019-02-28T12:37:55.796Z,16.30
2019-02-28T12:40:26.166Z,16.00
2019-02-28T12:42:55.085Z,16.10
2019-02-28T12:45:29.134Z,16.10
2019-02-28T12:47:57.363Z,15.90
2019-02-28T12:50:29.474Z,15.80
2019-02-28T12:52:55.982Z,15.90
2019-02-28T12:55:24.932Z,15.90
2019-02-28T12:57:57.805Z,15.70
2019-02-28T13:00:27.424Z,15.70
2019-02-28T13:02:54.886Z,15.50
2019-02-28T13:05:22.828Z,15.60
2019-02-28T13:07:50.753Z,15.60
2019-02-28T13:10:18.557Z,15.80
2019-02-28T13:12:48.949Z,15.80
2019-02-28T13:15:16.494Z,16.00
2019-02-28T13:17:44.419Z,16.30
2019-02-28T13:20:16.704Z,16.40
2019-02-28T13:22:46.913Z,16.20
2019-02-28T13:25:15.143Z,16.20
2019-02-28T13:27:45.198Z,16.20
2019-02-28T13:30:15.137Z,16.30
2019-02-28T13:32:43.621Z,16.30
2019-02-28T13:35:13.655Z,16.30
2019-02-28T13:37:42.256Z,16.40
2019-02-28T13:40:11.008Z,16.40
2019-02-28T13:42:40.593Z,16.50
2019-02-28T13:45:15.190Z,16.60
2019-02-28T13:47:42.113Z,16.90
2019-02-28T13:50:13.898Z,16.80
2019-02-28T13:52:41.813Z,16.80
2019-02-28T13:55:14.234Z,16.90
2019-02-28T13:57:40.727Z,17.00
2019-02-28T14:00:21.737Z,17.00
2019-02-28T14:02:51.138Z,16.80
2019-02-28T14:05:18.667Z,16.80
2019-02-28T14:07:47.088Z,16.50
2019-02-28T14:10:15.653Z,16.40
2019-02-28T14:12:43.948Z,16.40
2019-02-28T14:15:15.760Z,16.40
2019-02-28T14:17:44.420Z,16.20
2019-02-28T14:20:13.433Z,16.20
2019-02-28T14:22:42.748Z,16.20
2019-02-28T14:25:10.643Z,16.40
2019-02-28T14:27:38.211Z,16.30
2019-02-28T14:30:07.794Z,16.40
2019-02-28T14:32:38.697Z,16.40
2019-02-28T14:35:06.505Z,16.40
2019-02-28T14:37:33.913Z,16.10
2019-02-28T14:40:05.236Z,15.80
2019-02-28T14:42:32.885Z,15.60
2019-02-28T14:45:04.079Z,15.80
2019-02-28T14:47:30.374Z,15.90
2019-02-28T14:49:58.101Z,16.00
2019-02-28T14:52:25.472Z,16.20
2019-02-28T14:54:53.179Z,16.40
2019-02-28T14:57:20.901Z,16.60
2019-02-28T14:59:53.288Z,16.60
2019-02-28T15:02:21.084Z,16.70
2019-02-28T15:04:48.989Z,16.70
2019-02-28T15:07:16.600Z,16.40
2019-02-28T15:09:44.570Z,16.20
2019-02-28T15:12:12.095Z,16.10
2019-02-28T15:14:40.644Z,16.10
2019-02-28T15:17:08.880Z,16.10
2019-02-28T15:19:36.949Z,16.10
2019-02-28T15:22:04.995Z,16.10
2019-02-28T15:24:32.501Z,15.90
2019-02-28T15:27:00.119Z,15.80
2019-02-28T15:29:27.655Z,15.40
2019-02-28T15:31:55.423Z,15.40
2019-02-28T15:34:22.881Z,15.20
2019-02-28T15:36:50.891Z,15.00
2019-02-28T15:39:18.483Z,15.00
2019-02-28T15:41:46.212Z,14.90
2019-02-28T15:44:13.647Z,14.80
2019-02-28T15:46:43.848Z,14.60
2019-02-28T15:49:10.938Z,14.70
2019-02-28T15:51:39.052Z,14.50
2019-02-28T15:54:06.457Z,14.40
2019-02-28T15:56:34.386Z,14.50
2019-02-28T15:59:03.448Z,14.40
2019-02-28T16:01:32.355Z,14.30
2019-02-28T16:04:00.863Z,14.40
2019-02-28T16:06:28.656Z,14.40
2019-02-28T16:08:56.021Z,14.30
2019-02-28T16:11:23.679Z,14.30
2019-02-28T16:13:51.137Z,14.40
2019-02-28T16:16:21.434Z,14.50
2019-02-28T16:18:49.953Z,14.50
2019-02-28T16:21:18.112Z,14.30
2019-02-28T16:23:48.026Z,14.20
2019-02-28T16:26:18.224Z,13.90
2019-02-28T16:28:45.025Z,14.10
2019-02-28T16:31:12.953Z,14.00
2019-02-28T16:34:41.991Z,13.90
2019-02-28T16:37:08.355Z,13.80
2019-02-28T16:39:36.044Z,13.80
2019-02-28T16:42:03.545Z,13.60
2019-02-28T16:44:31.815Z,13.60
2019-02-28T16:47:00.184Z,13.50
2019-02-28T16:49:28.710Z,13.40
2019-02-28T16:51:56.421Z,13.30
2019-02-28T16:54:27.163Z,13.20
2019-02-28T16:56:54.492Z,13.10
2019-02-28T16:59:22.792Z,12.90
2019-02-28T17:01:51.374Z,12.80
2019-02-28T17:04:20.575Z,12.60
2019-02-28T17:06:48.965Z,12.40
2019-02-28T17:09:30.317Z,12.20
2019-02-28T17:12:17.663Z,12.10
2019-02-28T17:14:47.953Z,11.90
2019-02-28T17:17:30.172Z,11.90
2019-02-28T17:20:03.029Z,11.80
2019-02-28T17:22:31.172Z,11.70
2019-02-28T17:24:59.471Z,11.60
2019-02-28T17:27:35.057Z,11.50
2019-02-28T17:30:38.304Z,11.40
2019-02-28T17:33:08.996Z,11.30
2019-02-28T17:35:35.931Z,11.40
2019-02-28T17:38:04.221Z,11.40
2019-02-28T17:40:31.821Z,11.30
2019-02-28T17:42:59.570Z,11.30
2019-02-28T17:45:30.805Z,11.30
2019-02-28T17:48:35.874Z,11.10
2019-02-28T17:51:34.493Z,11.00
2019-02-28T17:54:20.789Z,11.00
2019-02-28T17:57:11.442Z,10.90
2019-02-28T18:00:26.976Z,10.90
2019-02-28T18:03:38.289Z,10.80
2019-02-28T18:06:53.402Z,10.60
2019-02-28T18:09:48.411Z,10.50
2019-02-28T18:13:07.446Z,10.40
2019-02-28T18:15:51.737Z,10.20
2019-02-28T18:19:09.822Z,10.10
2019-02-28T18:21:57.790Z,10.00
2019-02-28T18:24:59.430Z,10.10
2019-02-28T18:28:08.010Z,10.10
2019-02-28T18:31:13.793Z,10.10
2019-02-28T18:33:53.311Z,10.20
2019-02-28T18:36:23.261Z,10.20
2019-02-28T18:38:50.885Z,10.20
2019-02-28T18:41:42.949Z,10.20
2019-02-28T18:44:19.319Z,10.20
2019-02-28T18:47:16.380Z,10.30
2019-02-28T18:49:47.404Z,10.20
2019-02-28T18:52:15.587Z,10.20
2019-02-28T18:54:46.320Z,10.20
2019-02-28T18:57:14.219Z,10.20
2019-02-28T18:59:41.989Z,10.10
2019-02-28T19:02:15.498Z,10.10
2019-02-28T19:04:44.198Z,10.10
2019-02-28T19:07:11.858Z,10.00
2019-02-28T19:09:40.332Z,10.00
2019-02-28T19:12:10.701Z,10.00
2019-02-28T19:14:40.995Z,10.00
2019-02-28T19:17:09.432Z,10.00
2019-02-28T19:19:37.957Z,10.00
2019-02-28T19:22:05.612Z,10.00
2019-02-28T19:24:36.109Z,9.90
2019-02-28T19:27:06.566Z,10.00
2019-02-28T19:29:33.662Z,10.00
2019-02-28T19:32:01.553Z,10.10
2019-02-28T19:34:29.653Z,10.00
2019-02-28T19:36:57.507Z,10.00
2019-02-28T19:39:28.019Z,10.20
2019-02-28T19:42:04.016Z,10.20
2019-02-28T19:45:01.422Z,10.40
2019-02-28T19:47:32.132Z,10.30
2019-02-28T19:50:38.630Z,10.40
2019-02-28T19:53:07.643Z,10.40
2019-02-28T19:55:52.375Z,10.30
2019-02-28T19:58:42.591Z,10.30
2019-02-28T20:01:55.560Z,10.30
2019-02-28T20:04:38.508Z,10.30
2019-02-28T20:07:18.676Z,10.40
2019-02-28T20:09:46.677Z,10.40
2019-02-28T20:12:14.461Z,10.30
2019-02-28T20:14:42.808Z,10.30
2019-02-28T20:17:10.711Z,10.40
2019-02-28T20:19:38.481Z,10.30
2019-02-28T20:22:06.099Z,10.30
2019-02-28T20:24:34.219Z,10.20
2019-02-28T20:27:02.263Z,10.20
2019-02-28T20:29:30.287Z,10.20
2019-02-28T20:31:58.829Z,10.40
2019-02-28T20:34:26.364Z,10.50
2019-02-28T20:36:54.419Z,10.50
2019-02-28T20:39:22.090Z,10.50
2019-02-28T20:41:50.158Z,10.50
2019-02-28T20:44:17.854Z,10.50
2019-02-28T20:46:45.542Z,10.60
2019-02-28T20:49:13.663Z,10.70
2019-02-28T20:51:41.270Z,10.60
2019-02-28T20:54:09.162Z,10.60
2019-02-28T20:56:36.748Z,10.60
2019-02-28T20:59:04.340Z,10.60
2019-02-28T21:01:31.906Z,10.60
2019-02-28T21:03:59.578Z,10.70
2019-02-28T21:06:27.311Z,10.70
2019-02-28T21:08:55.801Z,10.80
2019-02-28T21:11:23.724Z,10.90
2019-02-28T21:13:51.539Z,11.00
2019-02-28T21:16:19.539Z,11.00
2019-02-28T21:18:47.217Z,11.10
2019-02-28T21:21:15.397Z,11.10
2019-02-28T21:23:45.788Z,11.10
2019-02-28T21:26:13.382Z,11.10
2019-02-28T21:28:40.918Z,11.20
2019-02-28T21:31:08.531Z,11.20
2019-02-28T21:33:36.150Z,11.20
2019-02-28T21:36:03.747Z,11.10
2019-02-28T21:38:31.691Z,11.00
2019-02-28T21:41:00.888Z,11.10
2019-02-28T21:43:28.398Z,11.10
2019-02-28T21:45:56.360Z,11.00
2019-02-28T21:48:24.383Z,11.00
2019-02-28T21:50:52.248Z,11.00
2019-02-28T21:53:19.733Z,11.00
2019-02-28T21:55:47.814Z,11.00
2019-02-28T21:58:15.193Z,10.90
2019-02-28T22:00:43.217Z,11.00
2019-02-28T22:03:11.189Z,11.00
2019-02-28T22:05:38.716Z,11.00
2019-02-28T22:08:07.863Z,10.90
2019-02-28T22:10:35.442Z,11.00
2019-02-28T22:13:03.122Z,11.00
2019-02-28T22:15:30.700Z,11.00
2019-02-28T22:17:58.387Z,10.90
2019-02-28T22:20:26.438Z,11.00
2019-02-28T22:22:53.876Z,10.90
2019-02-28T22:25:21.713Z,10.90
2019-02-28T22:27:49.204Z,10.80
2019-02-28T22:30:49.885Z,10.80
2019-02-28T22:33:27.207Z,10.80
2019-02-28T22:35:56.491Z,10.80
2019-02-28T22:38:23.979Z,10.70
2019-02-28T22:40:51.524Z,10.70
2019-02-28T22:43:19.787Z,10.60
2019-02-28T22:45:47.195Z,10.60
2019-02-28T22:48:15.079Z,10.50
2019-02-28T22:50:42.519Z,10.50
2019-02-28T22:53:10.034Z,10.50
2019-02-28T22:55:37.481Z,10.40
2019-02-28T22:58:07.371Z,10.50
2019-02-28T23:00:52.012Z,10.60
2019-02-28T23:03:19.699Z,10.50
2019-02-28T23:05:47.159Z,10.50
2019-02-28T23:08:15.022Z,10.30
2019-02-28T23:10:42.957Z,10.30
2019-02-28T23:13:10.799Z,10.20
2019-02-28T23:15:38.204Z,10.10
2019-02-28T23:18:05.760Z,10.10
2019-02-28T23:20:33.299Z,10.20
2019-02-28T23:23:00.783Z,10.20
2019-02-28T23:25:28.281Z,10.10
2019-02-28T23:28:08.485Z,10.10
2019-02-28T23:31:00.140Z,10.10
2019-02-28T23:33:27.641Z,10.10
2019-02-28T23:35:55.631Z,10.10
2019-02-28T23:38:23.084Z,10.10
2019-02-28T23:40:50.563Z,10.10
2019-02-28T23:43:17.974Z,10.00
2019-02-28T23:45:45.305Z,10.00
2019-02-28T23:48:12.726Z,10.00
2019-02-28T23:50:42.851Z,10.00
2019-02-28T23:53:10.444Z,10.00
2019-02-28T23:55:38.008Z,10.00
2019-02-28T23:58:05.834Z,10.00
